Time;durP1;ratioP1;P1;durP2;ratioP2;P2;SDS_P1;SDS_P2;PMS_P1;PMS_P2;Temp;Humidity;BMP_temperature;BMP_pressure;BME280_temperature;BME280_humidity;BME280_pressure;Samples;Min_cycle;Max_cycle;Signal;HPM_P1;HPM_P2
2023/08/12 00:01:42;;;;;;;6.67;5.90;;;;;;;;;;5101394;28;20479;-82
2023/08/12 00:04:11;;;;;;;5.70;5.20;;;;;;;;;;5101145;28;20461;-82
2023/08/12 00:06:39;;;;;;;5.50;5.00;;;;;;;;;;5101194;28;20462;-82
2023/08/12 00:09:07;;;;;;;7.27;5.10;;;;;;;;;;5100494;28;20430;-82
2023/08/12 00:11:34;;;;;;;8.03;5.40;;;;;;;;;;5101678;28;20985;-82
2023/08/12 00:14:01;;;;;;;8.63;5.57;;;;;;;;;;5101667;28;20451;-82
2023/08/12 00:16:29;;;;;;;9.30;5.50;;;;;;;;;;5100827;28;20466;-82
2023/08/12 00:18:56;;;;;;;5.73;5.17;;;;;;;;;;5101576;28;20838;-82
2023/08/12 00:21:24;;;;;;;7.87;5.40;;;;;;;;;;5100756;28;20502;-82
2023/08/12 00:23:51;;;;;;;8.07;6.03;;;;;;;;;;5101411;28;20479;-82
2023/08/12 00:26:18;;;;;;;7.07;5.40;;;;;;;;;;5101135;28;20493;-82
2023/08/12 00:28:45;;;;;;;6.90;6.20;;;;;;;;;;5101486;28;20459;-82
2023/08/12 00:31:12;;;;;;;6.30;5.70;;;;;;;;;;5101229;28;20457;-82
2023/08/12 00:33:41;;;;;;;6.47;5.80;;;;;;;;;;5101535;28;20454;-82
2023/08/12 00:36:08;;;;;;;7.73;5.83;;;;;;;;;;5101511;28;20439;-82
2023/08/12 00:38:35;;;;;;;6.07;5.27;;;;;;;;;;5100726;28;20488;-82
2023/08/12 00:41:02;;;;;;;8.60;5.70;;;;;;;;;;5100588;28;20461;-82
2023/08/12 00:43:29;;;;;;;9.27;6.50;;;;;;;;;;5101277;28;20550;-81
2023/08/12 00:45:56;;;;;;;8.00;7.20;;;;;;;;;;5100533;28;20465;-82
2023/08/12 00:48:24;;;;;;;8.70;6.07;;;;;;;;;;5098962;28;20442;-82
2023/08/12 00:50:52;;;;;;;9.40;6.20;;;;;;;;;;5100058;28;20923;-82
2023/08/12 00:53:20;;;;;;;13.30;7.90;;;;;;;;;;5100632;28;20545;-82
2023/08/12 00:55:47;;;;;;;6.50;5.90;;;;;;;;;;5100848;28;20525;-82
2023/08/12 00:58:14;;;;;;;11.33;6.93;;;;;;;;;;5100209;28;20490;-82
2023/08/12 01:00:42;;;;;;;6.47;5.77;;;;;;;;;;5100391;28;20533;-82
2023/08/12 01:03:09;;;;;;;9.00;6.13;;;;;;;;;;5100652;28;20501;-82
2023/08/12 01:05:37;;;;;;;7.70;6.30;;;;;;;;;;5099464;28;20905;-82
2023/08/12 01:08:06;;;;;;;7.47;6.70;;;;;;;;;;5100583;28;20431;-82
2023/08/12 01:10:35;;;;;;;6.50;5.90;;;;;;;;;;5099670;28;20542;-82
2023/08/12 01:13:05;;;;;;;12.93;6.60;;;;;;;;;;5099432;28;20477;-82
2023/08/12 01:15:33;;;;;;;9.53;7.03;;;;;;;;;;5099877;28;20530;-82
2023/08/12 01:18:02;;;;;;;9.33;7.40;;;;;;;;;;5099613;28;20578;-82
2023/08/12 01:20:30;;;;;;;7.30;6.60;;;;;;;;;;5100176;28;20438;-82
2023/08/12 01:22:58;;;;;;;8.80;7.90;;;;;;;;;;5100227;28;20469;-81
2023/08/12 01:25:27;;;;;;;9.87;6.47;;;;;;;;;;5099695;28;20426;-82
2023/08/12 01:27:56;;;;;;;7.83;6.90;;;;;;;;;;5099497;28;20447;-82
2023/08/12 01:30:23;;;;;;;7.87;7.07;;;;;;;;;;5099659;28;20520;-82
2023/08/12 01:32:53;;;;;;;7.67;6.23;;;;;;;;;;5099256;28;20869;-82
2023/08/12 01:35:22;;;;;;;7.20;6.50;;;;;;;;;;5099769;28;20450;-82
2023/08/12 01:37:51;;;;;;;9.17;7.57;;;;;;;;;;5099243;28;20578;-82
2023/08/12 01:40:20;;;;;;;8.73;7.80;;;;;;;;;;5099702;28;20443;-82
2023/08/12 01:42:48;;;;;;;8.40;7.50;;;;;;;;;;5099757;28;20542;-82
2023/08/12 01:45:15;;;;;;;8.70;7.80;;;;;;;;;;5099414;28;20455;-82
2023/08/12 01:47:44;;;;;;;7.70;7.00;;;;;;;;;;5099282;28;20451;-82
2023/08/12 01:50:11;;;;;;;8.00;7.30;;;;;;;;;;5100024;28;20525;-82
2023/08/12 01:52:39;;;;;;;8.50;6.70;;;;;;;;;;5100457;28;20993;-84
2023/08/12 01:55:06;;;;;;;7.50;6.77;;;;;;;;;;5100575;28;20451;-81
2023/08/12 01:57:33;;;;;;;8.87;7.97;;;;;;;;;;5101021;28;20474;-82
2023/08/12 02:00:04;;;;;;;8.40;7.30;;;;;;;;;;5100254;28;20512;-81
2023/08/12 02:02:31;;;;;;;9.00;8.10;;;;;;;;;;5099987;28;20463;-81
2023/08/12 02:04:58;;;;;;;8.57;7.60;;;;;;;;;;5100922;28;20819;-81
2023/08/12 02:07:25;;;;;;;8.80;7.93;;;;;;;;;;5100119;28;20828;-81
2023/08/12 02:09:52;;;;;;;8.30;7.27;;;;;;;;;;5101591;28;20450;-81
2023/08/12 02:12:20;;;;;;;9.43;7.70;;;;;;;;;;5101002;28;20467;-81
2023/08/12 02:14:47;;;;;;;6.97;6.27;;;;;;;;;;5099670;28;20443;-81
2023/08/12 02:17:15;;;;;;;9.23;6.57;;;;;;;;;;5097785;28;20803;-81
2023/08/12 02:19:42;;;;;;;10.13;7.60;;;;;;;;;;5099600;28;20541;-81
2023/08/12 02:22:10;;;;;;;7.97;6.93;;;;;;;;;;5099252;28;20467;-81
2023/08/12 02:24:37;;;;;;;7.27;6.53;;;;;;;;;;5099522;28;20806;-81
2023/08/12 02:27:04;;;;;;;6.60;6.00;;;;;;;;;;5098631;28;20449;-81
2023/08/12 02:29:31;;;;;;;6.93;6.23;;;;;;;;;;5100041;28;20455;-80
2023/08/12 02:31:59;;;;;;;7.47;6.77;;;;;;;;;;5098676;28;20480;-82
2023/08/12 02:34:27;;;;;;;9.40;7.70;;;;;;;;;;5099472;28;20477;-83
2023/08/12 02:36:54;;;;;;;8.60;7.43;;;;;;;;;;5099329;28;20451;-81
2023/08/12 02:39:21;;;;;;;8.83;7.87;;;;;;;;;;5099512;28;20494;-81
2023/08/12 02:41:48;;;;;;;8.10;7.30;;;;;;;;;;5099267;28;20561;-81
2023/08/12 02:44:16;;;;;;;10.30;8.70;;;;;;;;;;5099634;28;20453;-80
2023/08/12 02:46:43;;;;;;;9.03;8.13;;;;;;;;;;5098958;28;20439;-80
2023/08/12 02:49:10;;;;;;;8.80;7.47;;;;;;;;;;5102011;28;20445;-82
2023/08/12 02:51:38;;;;;;;9.43;7.73;;;;;;;;;;5102668;28;20475;-83
2023/08/12 02:54:06;;;;;;;8.80;7.90;;;;;;;;;;5102282;28;20453;-81
2023/08/12 02:56:33;;;;;;;9.67;8.00;;;;;;;;;;5101751;28;20450;-83
2023/08/12 02:59:00;;;;;;;9.37;8.40;;;;;;;;;;5101578;28;21061;-82
2023/08/12 03:01:27;;;;;;;9.70;8.70;;;;;;;;;;5101611;28;20554;-82
2023/08/12 03:03:54;;;;;;;9.57;8.77;;;;;;;;;;5102099;28;20960;-82
2023/08/12 03:06:22;;;;;;;10.63;9.60;;;;;;;;;;5100914;28;20450;-82
2023/08/12 03:08:50;;;;;;;12.30;10.37;;;;;;;;;;5101104;28;20454;-82
2023/08/12 03:11:19;;;;;;;11.80;9.13;;;;;;;;;;5101738;28;20474;-82
2023/08/12 03:13:46;;;;;;;8.63;7.77;;;;;;;;;;5101830;28;20450;-82
2023/08/12 03:16:14;;;;;;;8.90;8.10;;;;;;;;;;5101292;28;20458;-82
2023/08/12 03:18:41;;;;;;;9.47;7.87;;;;;;;;;;5101798;28;20486;-82
2023/08/12 03:21:08;;;;;;;11.50;8.77;;;;;;;;;;5101543;28;20447;-82
2023/08/12 03:23:35;;;;;;;8.83;8.03;;;;;;;;;;5101771;28;20825;-82
2023/08/12 03:26:04;;;;;;;10.03;9.03;;;;;;;;;;5101408;28;20554;-82
2023/08/12 03:28:31;;;;;;;11.50;9.07;;;;;;;;;;5101678;28;20471;-82
2023/08/12 03:30:59;;;;;;;10.23;9.20;;;;;;;;;;5101756;28;20446;-82
2023/08/12 03:33:26;;;;;;;29.93;20.77;;;;;;;;;;5102484;28;20529;-82
2023/08/12 03:35:53;;;;;;;13.80;11.73;;;;;;;;;;5102712;28;20439;-82
2023/08/12 03:38:20;;;;;;;12.13;10.07;;;;;;;;;;5101316;28;20823;-82
2023/08/12 03:40:47;;;;;;;10.37;9.37;;;;;;;;;;5101610;28;20993;-81
2023/08/12 03:43:16;;;;;;;11.27;10.20;;;;;;;;;;5101121;28;20486;-82
2023/08/12 03:45:43;;;;;;;12.30;11.10;;;;;;;;;;5101048;28;20446;-82
2023/08/12 03:48:10;;;;;;;12.37;11.10;;;;;;;;;;5100721;28;20546;-82
2023/08/12 03:50:37;;;;;;;10.93;9.93;;;;;;;;;;5101157;28;20455;-81
2023/08/12 03:53:05;;;;;;;12.07;10.87;;;;;;;;;;5100743;28;20471;-81
2023/08/12 03:55:32;;;;;;;10.93;9.83;;;;;;;;;;5100926;28;20891;-81
2023/08/12 03:57:59;;;;;;;11.13;9.97;;;;;;;;;;5100549;28;20483;-81
2023/08/12 04:00:28;;;;;;;11.20;10.00;;;;;;;;;;5100214;28;20458;-81
2023/08/12 04:02:55;;;;;;;11.40;10.23;;;;;;;;;;5100056;28;20474;-81
2023/08/12 04:05:23;;;;;;;10.23;9.33;;;;;;;;;;5099723;28;20439;-81
2023/08/12 04:07:51;;;;;;;12.03;10.80;;;;;;;;;;5099163;28;20449;-81
2023/08/12 04:10:18;;;;;;;11.30;10.20;;;;;;;;;;5099468;28;20446;-81
2023/08/12 04:12:45;;;;;;;12.63;10.80;;;;;;;;;;5099797;28;20462;-81
2023/08/12 04:15:12;;;;;;;12.40;10.53;;;;;;;;;;5099579;28;20969;-81
2023/08/12 04:17:41;;;;;;;10.67;9.67;;;;;;;;;;5099093;28;20462;-81
2023/08/12 04:20:09;;;;;;;11.50;10.33;;;;;;;;;;5098444;28;20430;-82
2023/08/12 04:22:36;;;;;;;12.13;10.30;;;;;;;;;;5099754;28;21039;-81
2023/08/12 04:25:04;;;;;;;10.83;9.77;;;;;;;;;;5099917;28;20474;-81
2023/08/12 04:27:31;;;;;;;10.10;9.00;;;;;;;;;;5099182;28;20824;-82
2023/08/12 04:29:58;;;;;;;10.30;9.30;;;;;;;;;;5099967;28;20457;-81
2023/08/12 04:32:25;;;;;;;10.67;8.83;;;;;;;;;;5098994;28;20471;-81
2023/08/12 04:34:53;;;;;;;9.67;8.67;;;;;;;;;;5099170;28;20442;-82
2023/08/12 04:37:21;;;;;;;10.43;9.37;;;;;;;;;;5099773;28;20460;-82
2023/08/12 04:39:48;;;;;;;8.03;7.23;;;;;;;;;;5100329;28;20501;-82
2023/08/12 04:42:15;;;;;;;7.73;6.97;;;;;;;;;;5100240;28;20466;-82
2023/08/12 04:44:42;;;;;;;7.10;6.40;;;;;;;;;;5100079;28;20464;-82
2023/08/12 04:47:10;;;;;;;7.30;5.97;;;;;;;;;;5099386;28;20453;-82
2023/08/12 04:49:37;;;;;;;5.67;4.90;;;;;;;;;;5099755;28;20525;-82
2023/08/12 04:52:08;;;;;;;10.13;5.50;;;;;;;;;;5099455;28;20982;-82
2023/08/12 04:54:35;;;;;;;5.27;4.77;;;;;;;;;;5099510;28;20435;-82
2023/08/12 04:57:02;;;;;;;5.17;4.67;;;;;;;;;;5098449;28;20460;-82
2023/08/12 04:59:29;;;;;;;5.97;4.63;;;;;;;;;;5098246;28;20490;-82
2023/08/12 05:01:56;;;;;;;5.50;4.77;;;;;;;;;;5097769;28;20565;-82
2023/08/12 05:04:24;;;;;;;5.00;4.60;;;;;;;;;;5098110;28;20457;-82
2023/08/12 05:06:51;;;;;;;4.90;4.50;;;;;;;;;;5098449;28;20914;-82
2023/08/12 05:09:19;;;;;;;5.37;4.30;;;;;;;;;;5098012;28;20959;-82
2023/08/12 05:11:46;;;;;;;4.50;4.20;;;;;;;;;;5097528;28;20545;-82
2023/08/12 05:14:14;;;;;;;5.97;4.57;;;;;;;;;;5097902;28;20435;-82
2023/08/12 05:16:41;;;;;;;4.20;3.90;;;;;;;;;;5097890;28;20523;-81
2023/08/12 05:19:08;;;;;;;4.00;3.50;;;;;;;;;;5098192;28;20994;-83
2023/08/12 05:21:35;;;;;;;3.70;3.40;;;;;;;;;;5098740;28;20474;-83
2023/08/12 05:24:02;;;;;;;5.00;4.30;;;;;;;;;;5098398;28;20469;-82
2023/08/12 05:26:31;;;;;;;5.37;3.87;;;;;;;;;;5097124;28;20854;-81
2023/08/12 05:28:58;;;;;;;9.90;6.20;;;;;;;;;;5098632;28;20443;-81
2023/08/12 05:31:25;;;;;;;20.17;14.33;;;;;;;;;;5098606;28;20478;-81
2023/08/12 05:33:53;;;;;;;9.43;6.10;;;;;;;;;;5098492;28;20967;-83
2023/08/12 05:36:20;;;;;;;11.87;6.33;;;;;;;;;;5098283;28;20443;-84
2023/08/12 05:38:47;;;;;;;8.10;5.63;;;;;;;;;;5097070;28;20483;-83
2023/08/12 05:41:14;;;;;;;9.57;5.90;;;;;;;;;;5097468;28;20521;-83
2023/08/12 05:43:42;;;;;;;7.67;4.97;;;;;;;;;;5096822;28;20552;-83
2023/08/12 05:46:10;;;;;;;5.30;4.50;;;;;;;;;;5098086;28;20443;-83
2023/08/12 05:48:37;;;;;;;7.73;4.80;;;;;;;;;;5097573;28;20458;-83
2023/08/12 05:51:04;;;;;;;5.87;4.30;;;;;;;;;;5096648;28;20489;-83
2023/08/12 05:53:32;;;;;;;11.60;5.80;;;;;;;;;;5097515;28;20535;-84
2023/08/12 05:55:59;;;;;;;7.70;5.70;;;;;;;;;;5097297;28;20447;-83
2023/08/12 05:58:26;;;;;;;7.57;4.77;;;;;;;;;;5096769;28;20482;-83
2023/08/12 06:00:54;;;;;;;5.00;4.50;;;;;;;;;;5096790;28;20461;-82
2023/08/12 06:03:22;;;;;;;7.57;4.07;;;;;;;;;;5095916;28;20576;-82
2023/08/12 06:05:49;;;;;;;4.77;4.17;;;;;;;;;;5096076;28;20454;-84
2023/08/12 06:08:16;;;;;;;6.47;4.40;;;;;;;;;;5095991;28;20469;-81
2023/08/12 06:10:43;;;;;;;4.10;3.70;;;;;;;;;;5096096;28;20534;-82
2023/08/12 06:13:10;;;;;;;5.03;3.93;;;;;;;;;;5096236;28;20970;-80
2023/08/12 06:15:38;;;;;;;5.77;4.10;;;;;;;;;;5095848;28;20434;-83
2023/08/12 06:18:07;;;;;;;7.37;4.37;;;;;;;;;;5095699;28;20556;-83
2023/08/12 06:20:34;;;;;;;5.27;4.17;;;;;;;;;;5095133;28;20228;-83
2023/08/12 06:23:01;;;;;;;6.10;4.40;;;;;;;;;;5095932;28;20252;-83
2023/08/12 06:25:28;;;;;;;6.37;4.47;;;;;;;;;;5099900;28;20219;-83
2023/08/12 06:27:55;;;;;;;6.40;4.00;;;;;;;;;;5099558;28;20210;-81
2023/08/12 06:30:22;;;;;;;7.30;2.90;;;;;;;;;;5099147;28;20226;-82
2023/08/12 06:32:49;;;;;;;3.30;3.00;;;;;;;;;;5098981;28;20224;-81
2023/08/12 06:35:18;;;;;;;3.90;2.90;;;;;;;;;;5099331;28;20218;-81
2023/08/12 06:37:45;;;;;;;3.00;2.70;;;;;;;;;;5099544;28;20303;-81
2023/08/12 06:40:12;;;;;;;3.33;3.03;;;;;;;;;;5098513;28;20302;-81
2023/08/12 06:42:40;;;;;;;3.23;2.93;;;;;;;;;;5098464;28;20255;-79
2023/08/12 06:45:08;;;;;;;2.90;2.70;;;;;;;;;;5098791;28;20592;-81
2023/08/12 06:47:35;;;;;;;2.83;2.60;;;;;;;;;;5098968;28;20290;-82
2023/08/12 06:50:02;;;;;;;2.80;2.27;;;;;;;;;;5098928;28;20207;-80
2023/08/12 06:52:30;;;;;;;2.87;2.40;;;;;;;;;;5098949;28;20228;-80
2023/08/12 06:54:57;;;;;;;2.75;2.40;;;;;;;;;;5099617;28;20683;-81
2023/08/12 06:57:25;;;;;;;3.28;2.97;;;;;;;;;;5099470;28;20276;-81
2023/08/12 06:59:52;;;;;;;3.33;2.53;;;;;;;;;;5099297;28;20354;-80
2023/08/12 07:02:19;;;;;;;2.80;2.50;;;;;;;;;;5098313;28;20224;-82
2023/08/12 07:04:46;;;;;;;3.00;2.70;;;;;;;;;;5098441;28;20555;-82
2023/08/12 07:07:13;;;;;;;2.90;2.70;;;;;;;;;;5099469;28;20204;-82
2023/08/12 07:09:42;;;;;;;2.90;2.70;;;;;;;;;;5099063;28;20291;-85
2023/08/12 07:12:09;;;;;;;7.00;2.87;;;;;;;;;;5098134;28;20236;-81
2023/08/12 07:14:37;;;;;;;2.87;2.63;;;;;;;;;;5098521;28;20572;-80
2023/08/12 07:17:04;;;;;;;2.63;2.43;;;;;;;;;;5098564;28;20220;-81
2023/08/12 07:19:31;;;;;;;2.53;2.33;;;;;;;;;;5098990;28;20311;-81
2023/08/12 07:21:58;;;;;;;2.87;2.67;;;;;;;;;;5098471;28;20307;-81
2023/08/12 07:24:25;;;;;;;3.10;2.80;;;;;;;;;;5097982;28;20295;-81
2023/08/12 07:26:54;;;;;;;3.10;2.80;;;;;;;;;;5099037;28;20210;-82
2023/08/12 07:29:21;;;;;;;3.17;2.87;;;;;;;;;;5098278;28;20211;-83
2023/08/12 07:31:48;;;;;;;3.17;2.37;;;;;;;;;;5098275;28;20228;-83
2023/08/12 07:34:15;;;;;;;5.10;2.60;;;;;;;;;;5098661;28;20234;-82
2023/08/12 07:36:42;;;;;;;2.88;2.67;;;;;;;;;;5098765;28;20231;-82
2023/08/12 07:39:10;;;;;;;2.65;2.45;;;;;;;;;;5098653;28;20312;-82
2023/08/12 07:41:37;;;;;;;5.63;3.13;;;;;;;;;;5098436;28;20236;-80
2023/08/12 07:44:06;;;;;;;3.05;2.70;;;;;;;;;;5097392;28;20200;-82
2023/08/12 07:46:33;;;;;;;3.97;2.55;;;;;;;;;;5098273;28;20724;-83
2023/08/12 07:49:00;;;;;;;2.78;2.30;;;;;;;;;;5098013;28;20208;-82
2023/08/12 07:51:27;;;;;;;2.28;2.08;;;;;;;;;;5098625;28;20340;-82
2023/08/12 07:53:55;;;;;;;3.35;2.28;;;;;;;;;;5100813;28;20200;-82
2023/08/12 07:56:22;;;;;;;2.17;2.00;;;;;;;;;;5101260;28;20207;-83
2023/08/12 07:58:49;;;;;;;2.60;2.40;;;;;;;;;;5100219;28;20598;-82
2023/08/12 08:01:17;;;;;;;2.47;2.10;;;;;;;;;;5101006;28;20215;-82
2023/08/12 08:03:45;;;;;;;2.40;2.20;;;;;;;;;;5101784;28;20542;-82
2023/08/12 08:06:13;;;;;;;2.73;2.30;;;;;;;;;;5100975;28;20892;-82
2023/08/12 08:08:40;;;;;;;6.00;2.40;;;;;;;;;;5101615;28;20763;-81
2023/08/12 08:11:07;;;;;;;5.43;2.70;;;;;;;;;;5100916;28;20449;-81
2023/08/12 08:13:34;;;;;;;2.33;2.00;;;;;;;;;;5101113;28;20438;-81
2023/08/12 08:16:02;;;;;;;2.77;2.47;;;;;;;;;;5100850;28;20461;-83
2023/08/12 08:18:30;;;;;;;2.37;2.17;;;;;;;;;;5100437;28;20458;-81
2023/08/12 08:20:57;;;;;;;6.30;2.57;;;;;;;;;;5100386;28;20494;-82
2023/08/12 08:23:24;;;;;;;2.90;2.60;;;;;;;;;;5099839;28;20565;-82
2023/08/12 08:25:51;;;;;;;2.60;2.40;;;;;;;;;;5099349;28;20446;-82
2023/08/12 08:28:19;;;;;;;2.67;2.47;;;;;;;;;;5100000;28;20453;-81
2023/08/12 08:30:46;;;;;;;2.97;2.30;;;;;;;;;;5100261;28;20451;-81
2023/08/12 08:33:13;;;;;;;3.10;2.40;;;;;;;;;;5098528;28;20471;-81
2023/08/12 08:35:41;;;;;;;2.90;2.60;;;;;;;;;;5098731;28;20455;-82
2023/08/12 08:38:08;;;;;;;2.73;2.53;;;;;;;;;;5098584;28;20511;-81
2023/08/12 08:40:37;;;;;;;4.70;2.60;;;;;;;;;;5099282;28;20490;-81
2023/08/12 08:43:08;;;;;;;2.53;2.33;;;;;;;;;;5100495;28;21007;-82
2023/08/12 08:45:36;;;;;;;4.00;2.47;;;;;;;;;;5098815;28;20416;-82
2023/08/12 08:48:04;;;;;;;3.10;2.73;;;;;;;;;;5099185;28;20447;-81
2023/08/12 08:50:31;;;;;;;3.03;2.83;;;;;;;;;;5099916;28;20519;-81
2023/08/12 08:53:01;;;;;;;2.40;2.20;;;;;;;;;;5100330;28;20562;-82
2023/08/12 08:55:29;;;;;;;3.13;2.83;;;;;;;;;;5101568;28;20506;-81
2023/08/12 08:57:57;;;;;;;3.57;2.73;;;;;;;;;;5100971;28;20462;-81
2023/08/12 09:00:25;;;;;;;2.63;2.40;;;;;;;;;;5100339;28;20482;-83
2023/08/12 09:02:52;;;;;;;2.93;2.63;;;;;;;;;;5099620;28;20463;-83
2023/08/12 09:05:21;;;;;;;4.17;3.03;;;;;;;;;;5100840;28;20452;-82
2023/08/12 09:07:49;;;;;;;4.77;2.77;;;;;;;;;;5103635;28;20427;-82
2023/08/12 09:10:18;;;;;;;4.23;2.67;;;;;;;;;;5100369;28;20962;-82
2023/08/12 09:12:46;;;;;;;3.20;2.90;;;;;;;;;;5099802;28;20696;-82
2023/08/12 09:15:13;;;;;;;3.77;2.97;;;;;;;;;;5099752;28;20443;-80
2023/08/12 09:17:41;;;;;;;4.10;2.70;;;;;;;;;;5099201;28;20467;-81
2023/08/12 09:20:11;;;;;;;3.27;2.97;;;;;;;;;;5098249;28;20587;-82
2023/08/12 09:22:38;;;;;;;2.87;2.57;;;;;;;;;;5098426;28;20512;-82
2023/08/12 09:25:06;;;;;;;2.70;2.50;;;;;;;;;;5099140;28;20466;-81
2023/08/12 09:27:34;;;;;;;8.07;2.60;;;;;;;;;;5098980;28;20462;-84
2023/08/12 09:30:04;;;;;;;7.27;5.93;;;;;;;;;;5099663;28;20494;-81
2023/08/12 09:32:34;;;;;;;3.47;2.50;;;;;;;;;;5101149;28;20835;-81
2023/08/12 09:35:03;;;;;;;3.40;2.90;;;;;;;;;;5099424;28;20443;-81
2023/08/12 09:37:30;;;;;;;3.83;2.50;;;;;;;;;;5100145;28;20443;-82
2023/08/12 09:39:58;;;;;;;2.73;2.53;;;;;;;;;;5099288;28;20539;-81
2023/08/12 09:42:25;;;;;;;2.67;2.20;;;;;;;;;;5098793;28;20475;-81
2023/08/12 09:44:54;;;;;;;2.93;2.60;;;;;;;;;;5099713;28;20516;-81
2023/08/12 09:47:21;;;;;;;5.40;2.53;;;;;;;;;;5100167;28;21026;-80
2023/08/12 09:49:48;;;;;;;4.33;3.23;;;;;;;;;;5101367;28;20451;-80
2023/08/12 09:52:16;;;;;;;2.70;2.50;;;;;;;;;;5099684;28;20486;-83
2023/08/12 09:54:43;;;;;;;3.33;2.80;;;;;;;;;;5099830;28;20457;-83
2023/08/12 09:57:12;;;;;;;3.13;2.83;;;;;;;;;;5099230;28;20880;-82
2023/08/12 09:59:42;;;;;;;2.80;2.30;;;;;;;;;;5102620;28;20490;-81
2023/08/12 10:02:18;;;;;;;5.03;2.20;;;;;;;;;;5103698;28;20974;-83
2023/08/12 10:04:46;;;;;;;2.90;2.70;;;;;;;;;;5103372;28;20553;-80
2023/08/12 10:07:15;;;;;;;2.13;1.93;;;;;;;;;;5102200;28;20496;-82
2023/08/12 10:09:43;;;;;;;4.20;2.20;;;;;;;;;;5103278;28;20433;-81
2023/08/12 10:12:10;;;;;;;2.27;2.07;;;;;;;;;;5103285;28;20552;-80
2023/08/12 10:14:38;;;;;;;2.40;2.20;;;;;;;;;;5104288;28;20450;-83
2023/08/12 10:17:05;;;;;;;2.60;2.30;;;;;;;;;;5103478;28;20462;-81
2023/08/12 10:19:33;;;;;;;2.20;2.00;;;;;;;;;;5103420;28;20485;-81
2023/08/12 10:22:01;;;;;;;3.33;2.17;;;;;;;;;;5104841;28;20474;-81
2023/08/12 10:24:28;;;;;;;2.03;1.83;;;;;;;;;;5103638;28;20442;-80
2023/08/12 10:26:56;;;;;;;5.53;2.10;;;;;;;;;;5103025;28;20512;-81
2023/08/12 10:29:25;;;;;;;2.73;2.20;;;;;;;;;;5103388;28;20546;-81
2023/08/12 10:31:52;;;;;;;2.27;2.07;;;;;;;;;;5102262;28;20453;-82
2023/08/12 10:34:20;;;;;;;4.00;2.40;;;;;;;;;;5101336;28;20895;-82
2023/08/12 10:36:48;;;;;;;2.60;2.27;;;;;;;;;;5101228;28;20463;-80
2023/08/12 10:39:16;;;;;;;2.23;2.03;;;;;;;;;;5100865;28;20439;-82
2023/08/12 10:41:52;;;;;;;2.87;2.67;;;;;;;;;;5101288;28;20488;-81
2023/08/12 10:44:21;;;;;;;2.37;2.17;;;;;;;;;;5100821;28;20464;-83
2023/08/12 10:46:51;;;;;;;2.03;1.83;;;;;;;;;;5100075;28;20439;-83
2023/08/12 10:49:20;;;;;;;2.20;2.03;;;;;;;;;;5101168;28;20534;-83
2023/08/12 10:51:49;;;;;;;1.80;1.70;;;;;;;;;;5100304;28;20533;-83
2023/08/12 10:54:17;;;;;;;2.00;1.80;;;;;;;;;;5100048;28;20673;-83
2023/08/12 10:57:04;;;;;;;2.70;2.33;;;;;;;;;;5100109;28;20861;-82
2023/08/12 10:59:52;;;;;;;2.43;2.23;;;;;;;;;;5100106;28;20537;-84
2023/08/12 11:02:20;;;;;;;2.60;2.07;;;;;;;;;;5098457;28;20513;-83
2023/08/12 11:04:50;;;;;;;2.63;2.23;;;;;;;;;;5100011;28;20862;-83
2023/08/12 11:07:20;;;;;;;2.43;2.17;;;;;;;;;;5099521;28;20458;-82
2023/08/12 11:09:53;;;;;;;5.83;2.10;;;;;;;;;;5103001;28;20462;-82
2023/08/12 11:12:20;;;;;;;2.30;2.10;;;;;;;;;;5103422;28;20587;-83
2023/08/12 11:14:50;;;;;;;2.50;2.20;;;;;;;;;;5103064;28;20446;-82
2023/08/12 11:17:17;;;;;;;2.13;2.00;;;;;;;;;;5104024;28;20459;-82
2023/08/12 11:19:44;;;;;;;2.50;2.27;;;;;;;;;;5103519;28;20471;-83
2023/08/12 11:22:12;;;;;;;3.40;2.20;;;;;;;;;;5104437;28;20501;-82
2023/08/12 11:24:43;;;;;;;2.80;2.00;;;;;;;;;;5104581;28;20466;-82
2023/08/12 11:27:11;;;;;;;4.40;2.33;;;;;;;;;;5101279;28;20465;-82
2023/08/12 11:29:39;;;;;;;2.10;1.90;;;;;;;;;;5101465;28;20534;-81
2023/08/12 11:32:07;;;;;;;2.33;2.13;;;;;;;;;;5101312;28;20515;-82
2023/08/12 11:34:34;;;;;;;2.37;2.17;;;;;;;;;;5102931;28;20466;-83
2023/08/12 11:37:01;;;;;;;2.33;2.13;;;;;;;;;;5103994;28;20439;-83
2023/08/12 11:39:29;;;;;;;2.90;2.70;;;;;;;;;;5103294;28;20485;-84
2023/08/12 11:41:58;;;;;;;2.73;1.90;;;;;;;;;;5102827;28;20523;-83
2023/08/12 11:44:25;;;;;;;3.90;1.90;;;;;;;;;;5103388;28;20434;-84
2023/08/12 11:46:53;;;;;;;2.00;1.90;;;;;;;;;;5102944;28;20533;-81
2023/08/12 11:49:20;;;;;;;6.70;2.30;;;;;;;;;;5103029;28;20458;-82
2023/08/12 11:51:48;;;;;;;2.50;2.30;;;;;;;;;;5102091;28;20474;-84
2023/08/12 11:54:16;;;;;;;2.20;1.73;;;;;;;;;;5102059;28;20456;-84
2023/08/12 11:56:43;;;;;;;2.57;2.37;;;;;;;;;;5102183;28;20526;-84
2023/08/12 11:59:12;;;;;;;3.90;3.60;;;;;;;;;;5101361;28;20947;-83
2023/08/12 12:01:39;;;;;;;2.93;2.20;;;;;;;;;;5101486;28;20496;-81
2023/08/12 12:04:06;;;;;;;2.60;2.40;;;;;;;;;;5103275;28;20482;-84
2023/08/12 12:06:39;;;;;;;4.40;2.43;;;;;;;;;;5102105;28;20458;-84
2023/08/12 12:09:09;;;;;;;2.60;2.40;;;;;;;;;;5103142;28;20908;-83
2023/08/12 12:11:37;;;;;;;2.70;2.50;;;;;;;;;;5103760;28;20561;-85
2023/08/12 12:14:05;;;;;;;5.73;2.47;;;;;;;;;;5104080;28;20462;-84
2023/08/12 12:16:43;;;;;;;3.17;2.03;;;;;;;;;;5102911;28;20553;-83
2023/08/12 12:19:11;;;;;;;6.70;2.73;;;;;;;;;;5100987;28;20529;-83
2023/08/12 12:21:42;;;;;;;4.10;2.30;;;;;;;;;;5101462;28;20529;-83
2023/08/12 12:24:09;;;;;;;2.20;2.00;;;;;;;;;;5103865;28;20960;-82
2023/08/12 12:26:37;;;;;;;2.30;2.10;;;;;;;;;;5103411;28;20488;-83
2023/08/12 12:29:04;;;;;;;2.30;2.10;;;;;;;;;;5101425;28;20463;-83
2023/08/12 12:31:33;;;;;;;5.07;4.57;;;;;;;;;;5101416;28;20549;-84
2023/08/12 12:34:02;;;;;;;3.00;2.80;;;;;;;;;;5102924;28;20439;-82
2023/08/12 12:36:29;;;;;;;3.83;2.30;;;;;;;;;;5102394;28;20787;-81
2023/08/12 12:38:56;;;;;;;2.70;2.50;;;;;;;;;;5101932;28;20450;-82
2023/08/12 12:41:24;;;;;;;2.47;2.27;;;;;;;;;;5102080;28;20482;-82
2023/08/12 12:43:51;;;;;;;2.23;2.03;;;;;;;;;;5100842;28;20439;-84
2023/08/12 12:46:18;;;;;;;2.90;2.70;;;;;;;;;;5101765;28;20477;-83
2023/08/12 12:48:46;;;;;;;2.37;2.03;;;;;;;;;;5102968;28;20458;-82
2023/08/12 12:51:15;;;;;;;6.03;5.37;;;;;;;;;;5117066;23;20543;-83
2023/08/12 12:53:43;;;;;;;3.30;2.10;;;;;;;;;;5080369;28;20456;-83
2023/08/12 12:56:10;;;;;;;2.33;2.10;;;;;;;;;;5079750;28;20564;-82
2023/08/12 12:58:38;;;;;;;2.50;2.30;;;;;;;;;;5079641;28;20463;-82
2023/08/12 13:01:06;;;;;;;4.50;3.20;;;;;;;;;;5078887;28;20480;-83
2023/08/12 13:03:33;;;;;;;2.60;2.40;;;;;;;;;;5079369;28;20885;-83
2023/08/12 13:06:34;;;;;;;2.70;2.50;;;;;;;;;;5080055;28;20420;-83
2023/08/12 13:09:04;;;;;;;3.03;2.80;;;;;;;;;;5078616;28;20511;-82
2023/08/12 13:11:33;;;;;;;2.93;2.40;;;;;;;;;;5078744;28;20484;-82
2023/08/12 13:14:01;;;;;;;2.90;2.63;;;;;;;;;;5078872;28;21004;-82
2023/08/12 13:16:28;;;;;;;4.10;2.60;;;;;;;;;;5078314;28;20666;-82
2023/08/12 13:18:55;;;;;;;4.37;2.73;;;;;;;;;;5078126;28;20455;-83
2023/08/12 13:21:23;;;;;;;3.13;2.93;;;;;;;;;;5077871;28;22215;-83
2023/08/12 13:23:50;;;;;;;3.03;2.83;;;;;;;;;;5078016;28;20444;-83
2023/08/12 13:26:31;;;;;;;4.33;2.47;;;;;;;;;;5077401;28;20444;-83
2023/08/12 13:28:58;;;;;;;2.87;2.27;;;;;;;;;;5078145;28;20515;-83
2023/08/12 13:31:26;;;;;;;3.00;2.70;;;;;;;;;;5077755;28;20471;-83
2023/08/12 13:33:53;;;;;;;8.67;2.90;;;;;;;;;;5077189;28;20443;-83
2023/08/12 13:36:20;;;;;;;3.17;2.87;;;;;;;;;;5077390;28;20455;-82
2023/08/12 13:38:48;;;;;;;2.90;2.60;;;;;;;;;;5077866;28;20455;-83
2023/08/12 13:41:16;;;;;;;4.07;3.13;;;;;;;;;;5077723;28;21004;-83
2023/08/12 13:43:44;;;;;;;3.43;3.00;;;;;;;;;;5077714;28;20543;-82
2023/08/12 13:46:12;;;;;;;4.00;2.97;;;;;;;;;;5077855;28;20955;-82
2023/08/12 13:48:40;;;;;;;3.93;3.20;;;;;;;;;;5078474;28;20467;-82
2023/08/12 13:53:45;;;;;;;3.27;2.97;;;;;;;;;;5702888;22;20508;-82
2023/08/12 13:56:12;;;;;;;3.17;2.87;;;;;;;;;;5057103;28;20526;-82
2023/08/12 13:58:39;;;;;;;4.30;2.70;;;;;;;;;;5056628;28;20464;-82
2023/08/12 14:01:08;;;;;;;5.83;3.57;;;;;;;;;;5057289;28;20553;-83
2023/08/12 14:03:37;;;;;;;3.37;3.00;;;;;;;;;;5057234;28;20457;-82
2023/08/12 14:06:04;;;;;;;4.47;3.17;;;;;;;;;;5057218;28;20448;-82
2023/08/12 14:08:31;;;;;;;3.43;3.23;;;;;;;;;;5057531;28;20445;-83
2023/08/12 14:10:59;;;;;;;3.37;3.07;;;;;;;;;;5055798;28;20444;-83
2023/08/12 14:13:26;;;;;;;5.57;3.23;;;;;;;;;;5056543;28;20977;-82
2023/08/12 14:15:54;;;;;;;3.20;2.90;;;;;;;;;;5057130;28;20456;-82
2023/08/12 14:18:23;;;;;;;3.30;3.00;;;;;;;;;;5056862;28;20481;-82
2023/08/12 14:20:51;;;;;;;3.10;2.80;;;;;;;;;;5056987;28;20461;-82
2023/08/12 14:23:18;;;;;;;3.70;3.40;;;;;;;;;;5057164;28;20491;-82
2023/08/12 14:25:45;;;;;;;3.13;2.90;;;;;;;;;;5057184;28;20449;-83
2023/08/12 14:28:12;;;;;;;3.73;2.93;;;;;;;;;;5057034;28;20874;-81
2023/08/12 14:30:40;;;;;;;7.57;3.30;;;;;;;;;;5056313;28;20452;-83
2023/08/12 14:33:07;;;;;;;5.03;3.30;;;;;;;;;;5056364;28;20500;-83
2023/08/12 14:35:36;;;;;;;8.60;3.47;;;;;;;;;;5056964;28;20889;-83
2023/08/12 14:38:04;;;;;;;4.17;3.87;;;;;;;;;;5056934;28;20499;-81
2023/08/12 14:40:31;;;;;;;3.67;3.33;;;;;;;;;;5056019;28;20522;-82
2023/08/12 14:42:58;;;;;;;4.17;3.50;;;;;;;;;;5055745;28;21019;-81
2023/08/12 14:45:25;;;;;;;4.33;2.67;;;;;;;;;;5059224;28;20483;-82
2023/08/12 14:47:53;;;;;;;16.70;14.90;;;;;;;;;;5060416;28;20449;-82